sensor_id;sensor_type;location;lat;lon;timestamp;temperature;humidity
13433;DHT22;6789;47.678;9.158;2023-01-10T00:00:01;4.90;99.90
13433;DHT22;6789;47.678;9.158;2023-01-10T00:04:55;4.90;99.90
13433;DHT22;6789;47.678;9.158;2023-01-10T00:09:47;4.90;99.90
13433;DHT22;6789;47.678;9.158;2023-01-10T00:14:41;5.00;99.90
13433;DHT22;6789;47.678;9.158;2023-01-10T00:19:33;5.00;99.90
13433;DHT22;6789;47.678;9.158;2023-01-10T00:24:25;4.90;99.90
13433;DHT22;6789;47.678;9.158;2023-01-10T00:29:18;5.00;99.90
13433;DHT22;6789;47.678;9.158;2023-01-10T00:34:10;4.90;99.90
13433;DHT22;6789;47.678;9.158;2023-01-10T00:39:02;4.80;99.90
13433;DHT22;6789;47.678;9.158;2023-01-10T00:43:55;4.80;99.90
13433;DHT22;6789;47.678;9.158;2023-01-10T00:48:47;4.80;99.90
13433;DHT22;6789;47.678;9.158;2023-01-10T00:53:39;4.80;99.90
13433;DHT22;6789;47.678;9.158;2023-01-10T00:58:30;4.70;99.90
13433;DHT22;6789;47.678;9.158;2023-01-10T01:03:23;4.60;99.90
13433;DHT22;6789;47.678;9.158;2023-01-10T01:08:16;4.50;99.90
13433;DHT22;6789;47.678;9.158;2023-01-10T01:13:16;4.40;99.90
13433;DHT22;6789;47.678;9.158;2023-01-10T01:18:16;4.50;99.90
13433;DHT22;6789;47.678;9.158;2023-01-10T01:23:09;4.60;99.90
13433;DHT22;6789;47.678;9.158;2023-01-10T01:28:01;4.60;99.90
13433;DHT22;6789;47.678;9.158;2023-01-10T01:32:52;4.60;99.90
13433;DHT22;6789;47.678;9.158;2023-01-10T01:37:44;4.60;99.90
13433;DHT22;6789;47.678;9.158;2023-01-10T01:42:36;4.70;99.90
13433;DHT22;6789;47.678;9.158;2023-01-10T01:47:28;4.70;99.90
13433;DHT22;6789;47.678;9.158;2023-01-10T01:52:25;4.70;99.90
13433;DHT22;6789;47.678;9.158;2023-01-10T01:57:27;4.80;99.90
13433;DHT22;6789;47.678;9.158;2023-01-10T02:02:29;4.80;99.90
13433;DHT22;6789;47.678;9.158;2023-01-10T02:07:28;4.80;99.90
13433;DHT22;6789;47.678;9.158;2023-01-10T02:12:24;4.80;99.90
13433;DHT22;6789;47.678;9.158;2023-01-10T02:17:18;4.90;99.90
13433;DHT22;6789;47.678;9.158;2023-01-10T02:32:42;5.20;99.90
13433;DHT22;6789;47.678;9.158;2023-01-10T02:38:22;5.10;99.90
13433;DHT22;6789;47.678;9.158;2023-01-10T02:43:27;5.10;99.90
13433;DHT22;6789;47.678;9.158;2023-01-10T02:48:24;5.10;99.90
13433;DHT22;6789;47.678;9.158;2023-01-10T02:53:23;5.10;99.90
13433;DHT22;6789;47.678;9.158;2023-01-10T03:14:27;5.30;99.90
13433;DHT22;6789;47.678;9.158;2023-01-10T03:19:23;5.10;99.90
13433;DHT22;6789;47.678;9.158;2023-01-10T03:24:26;5.10;99.90
13433;DHT22;6789;47.678;9.158;2023-01-10T03:29:36;5.10;99.90
13433;DHT22;6789;47.678;9.158;2023-01-10T03:34:34;5.10;99.90
13433;DHT22;6789;47.678;9.158;2023-01-10T03:45:04;5.10;99.90
13433;DHT22;6789;47.678;9.158;2023-01-10T03:50:03;5.10;99.90
13433;DHT22;6789;47.678;9.158;2023-01-10T03:54:58;5.10;99.90
13433;DHT22;6789;47.678;9.158;2023-01-10T03:59:55;5.10;99.90
13433;DHT22;6789;47.678;9.158;2023-01-10T04:04:49;5.00;99.90
13433;DHT22;6789;47.678;9.158;2023-01-10T04:09:40;4.90;99.90
13433;DHT22;6789;47.678;9.158;2023-01-10T04:14:32;4.90;99.90
13433;DHT22;6789;47.678;9.158;2023-01-10T04:19:24;4.90;99.90
13433;DHT22;6789;47.678;9.158;2023-01-10T04:24:16;4.90;99.90
13433;DHT22;6789;47.678;9.158;2023-01-10T04:29:08;4.80;99.90
13433;DHT22;6789;47.678;9.158;2023-01-10T04:33:59;4.80;99.90
13433;DHT22;6789;47.678;9.158;2023-01-10T04:38:51;4.90;99.90
13433;DHT22;6789;47.678;9.158;2023-01-10T04:43:43;4.90;99.90
13433;DHT22;6789;47.678;9.158;2023-01-10T04:48:35;4.80;99.90
13433;DHT22;6789;47.678;9.158;2023-01-10T04:53:27;4.90;99.90
13433;DHT22;6789;47.678;9.158;2023-01-10T04:58:19;5.00;99.90
13433;DHT22;6789;47.678;9.158;2023-01-10T05:03:11;4.90;99.90
13433;DHT22;6789;47.678;9.158;2023-01-10T05:08:17;4.90;99.90
13433;DHT22;6789;47.678;9.158;2023-01-10T05:13:22;4.90;99.90
13433;DHT22;6789;47.678;9.158;2023-01-10T05:18:28;5.00;99.90
13433;DHT22;6789;47.678;9.158;2023-01-10T05:23:24;4.90;99.90
13433;DHT22;6789;47.678;9.158;2023-01-10T05:28:30;4.90;99.90
13433;DHT22;6789;47.678;9.158;2023-01-10T05:33:23;4.80;99.90
13433;DHT22;6789;47.678;9.158;2023-01-10T05:38:17;4.90;99.90
13433;DHT22;6789;47.678;9.158;2023-01-10T05:43:10;4.80;99.90
13433;DHT22;6789;47.678;9.158;2023-01-10T05:48:16;4.70;99.90
13433;DHT22;6789;47.678;9.158;2023-01-10T05:53:10;4.70;99.90
13433;DHT22;6789;47.678;9.158;2023-01-10T05:58:16;4.70;99.90
13433;DHT22;6789;47.678;9.158;2023-01-10T06:03:22;4.70;99.90
13433;DHT22;6789;47.678;9.158;2023-01-10T06:08:17;4.50;99.90
13433;DHT22;6789;47.678;9.158;2023-01-10T06:13:23;4.50;99.90
13433;DHT22;6789;47.678;9.158;2023-01-10T06:18:17;4.50;99.90
13433;DHT22;6789;47.678;9.158;2023-01-10T06:23:09;4.50;99.90
13433;DHT22;6789;47.678;9.158;2023-01-10T06:28:12;4.50;99.90
13433;DHT22;6789;47.678;9.158;2023-01-10T06:33:19;4.50;99.90
13433;DHT22;6789;47.678;9.158;2023-01-10T06:38:24;4.60;99.90
13433;DHT22;6789;47.678;9.158;2023-01-10T06:43:30;4.60;99.90
13433;DHT22;6789;47.678;9.158;2023-01-10T06:48:37;4.60;99.90
13433;DHT22;6789;47.678;9.158;2023-01-10T06:53:43;4.60;99.90
13433;DHT22;6789;47.678;9.158;2023-01-10T06:58:49;4.70;99.90
13433;DHT22;6789;47.678;9.158;2023-01-10T07:03:52;4.80;99.90
13433;DHT22;6789;47.678;9.158;2023-01-10T07:08:58;4.90;99.90
13433;DHT22;6789;47.678;9.158;2023-01-10T07:13:51;4.80;99.90
13433;DHT22;6789;47.678;9.158;2023-01-10T07:18:58;4.70;99.90
13433;DHT22;6789;47.678;9.158;2023-01-10T07:24:05;4.90;99.90
13433;DHT22;6789;47.678;9.158;2023-01-10T07:29:11;4.90;99.90
13433;DHT22;6789;47.678;9.158;2023-01-10T07:34:19;4.90;99.90
13433;DHT22;6789;47.678;9.158;2023-01-10T07:39:25;5.00;99.90
13433;DHT22;6789;47.678;9.158;2023-01-10T07:44:31;5.00;99.90
13433;DHT22;6789;47.678;9.158;2023-01-10T07:49:24;5.00;99.90
13433;DHT22;6789;47.678;9.158;2023-01-10T07:54:30;5.00;99.90
13433;DHT22;6789;47.678;9.158;2023-01-10T07:59:36;5.10;99.90
13433;DHT22;6789;47.678;9.158;2023-01-10T08:04:42;5.10;99.90
13433;DHT22;6789;47.678;9.158;2023-01-10T08:09:39;5.10;99.90
13433;DHT22;6789;47.678;9.158;2023-01-10T08:14:45;5.20;99.90
13433;DHT22;6789;47.678;9.158;2023-01-10T08:19:58;5.30;99.90
13433;DHT22;6789;47.678;9.158;2023-01-10T08:24:53;5.40;99.90
13433;DHT22;6789;47.678;9.158;2023-01-10T08:30:00;5.40;99.90
13433;DHT22;6789;47.678;9.158;2023-01-10T08:35:08;5.30;99.90
13433;DHT22;6789;47.678;9.158;2023-01-10T08:40:07;5.30;99.90
13433;DHT22;6789;47.678;9.158;2023-01-10T08:45:13;5.30;99.90
13433;DHT22;6789;47.678;9.158;2023-01-10T08:50:20;5.40;99.90
13433;DHT22;6789;47.678;9.158;2023-01-10T08:55:17;5.60;99.90
13433;DHT22;6789;47.678;9.158;2023-01-10T09:00:23;5.40;99.90
13433;DHT22;6789;47.678;9.158;2023-01-10T09:05:17;5.50;99.90
13433;DHT22;6789;47.678;9.158;2023-01-10T09:10:19;5.70;99.90
13433;DHT22;6789;47.678;9.158;2023-01-10T09:15:28;5.80;99.90
13433;DHT22;6789;47.678;9.158;2023-01-10T09:20:40;5.80;99.90
13433;DHT22;6789;47.678;9.158;2023-01-10T09:25:50;6.00;99.90
13433;DHT22;6789;47.678;9.158;2023-01-10T09:31:06;6.10;99.90
13433;DHT22;6789;47.678;9.158;2023-01-10T09:36:29;6.00;99.90
13433;DHT22;6789;47.678;9.158;2023-01-10T09:41:54;6.10;99.90
13433;DHT22;6789;47.678;9.158;2023-01-10T09:53:02;6.40;99.90
13433;DHT22;6789;47.678;9.158;2023-01-10T09:58:17;6.60;99.90
13433;DHT22;6789;47.678;9.158;2023-01-10T10:34:48;7.30;99.90
13433;DHT22;6789;47.678;9.158;2023-01-10T10:40:40;7.20;99.90
13433;DHT22;6789;47.678;9.158;2023-01-10T10:46:10;7.30;99.90
13433;DHT22;6789;47.678;9.158;2023-01-10T10:52:13;7.40;99.90
13433;DHT22;6789;47.678;9.158;2023-01-10T10:58:03;7.30;99.90
13433;DHT22;6789;47.678;9.158;2023-01-10T11:03:53;7.40;99.90
13433;DHT22;6789;47.678;9.158;2023-01-10T11:09:33;7.50;99.90
13433;DHT22;6789;47.678;9.158;2023-01-10T11:15:44;7.30;99.90
13433;DHT22;6789;47.678;9.158;2023-01-10T11:27:44;7.20;99.90
13433;DHT22;6789;47.678;9.158;2023-01-10T11:33:16;7.20;99.90
13433;DHT22;6789;47.678;9.158;2023-01-10T11:39:01;7.30;99.90
13433;DHT22;6789;47.678;9.158;2023-01-10T12:03:53;7.20;99.90
13433;DHT22;6789;47.678;9.158;2023-01-10T12:09:50;7.10;99.90
13433;DHT22;6789;47.678;9.158;2023-01-10T12:21:22;7.10;99.90
13433;DHT22;6789;47.678;9.158;2023-01-10T12:27:29;7.20;99.90
13433;DHT22;6789;47.678;9.158;2023-01-10T12:33:50;7.50;99.90
13433;DHT22;6789;47.678;9.158;2023-01-10T12:39:33;7.50;99.90
13433;DHT22;6789;47.678;9.158;2023-01-10T12:51:47;7.70;99.90
13433;DHT22;6789;47.678;9.158;2023-01-10T12:57:37;7.60;99.90
13433;DHT22;6789;47.678;9.158;2023-01-10T13:03:18;7.90;99.90
13433;DHT22;6789;47.678;9.158;2023-01-10T13:08:42;8.00;99.90
13433;DHT22;6789;47.678;9.158;2023-01-10T13:20:28;7.90;99.90
13433;DHT22;6789;47.678;9.158;2023-01-10T13:26:08;8.10;99.90
13433;DHT22;6789;47.678;9.158;2023-01-10T13:31:49;8.20;99.90
13433;DHT22;6789;47.678;9.158;2023-01-10T13:56:36;8.20;99.90
13433;DHT22;6789;47.678;9.158;2023-01-10T14:02:26;8.10;99.90
13433;DHT22;6789;47.678;9.158;2023-01-10T14:08:29;8.10;99.90
13433;DHT22;6789;47.678;9.158;2023-01-10T14:25:21;8.20;99.90
13433;DHT22;6789;47.678;9.158;2023-01-10T14:36:26;8.10;99.90
13433;DHT22;6789;47.678;9.158;2023-01-10T14:41:38;8.00;99.90
13433;DHT22;6789;47.678;9.158;2023-01-10T14:46:57;7.90;99.90
13433;DHT22;6789;47.678;9.158;2023-01-10T14:57:25;7.70;99.90
13433;DHT22;6789;47.678;9.158;2023-01-10T15:02:33;7.50;99.90
13433;DHT22;6789;47.678;9.158;2023-01-10T15:07:39;7.30;99.90
13433;DHT22;6789;47.678;9.158;2023-01-10T15:12:46;7.20;99.90
13433;DHT22;6789;47.678;9.158;2023-01-10T15:17:53;7.10;99.90
13433;DHT22;6789;47.678;9.158;2023-01-10T15:23:00;7.00;99.90
13433;DHT22;6789;47.678;9.158;2023-01-10T15:28:14;6.90;99.90
13433;DHT22;6789;47.678;9.158;2023-01-10T15:33:27;6.70;99.90
13433;DHT22;6789;47.678;9.158;2023-01-10T15:38:37;6.70;99.90
13433;DHT22;6789;47.678;9.158;2023-01-10T15:44:20;6.60;99.90
13433;DHT22;6789;47.678;9.158;2023-01-10T15:49:27;6.50;99.90
13433;DHT22;6789;47.678;9.158;2023-01-10T15:54:33;6.40;99.90
13433;DHT22;6789;47.678;9.158;2023-01-10T15:59:45;6.30;99.90
13433;DHT22;6789;47.678;9.158;2023-01-10T16:05:07;6.20;99.90
13433;DHT22;6789;47.678;9.158;2023-01-10T16:10:26;6.20;99.90
13433;DHT22;6789;47.678;9.158;2023-01-10T16:15:36;6.00;99.90
13433;DHT22;6789;47.678;9.158;2023-01-10T16:20:47;6.00;99.90
13433;DHT22;6789;47.678;9.158;2023-01-10T16:25:57;6.00;99.90
13433;DHT22;6789;47.678;9.158;2023-01-10T16:31:07;5.90;99.90
13433;DHT22;6789;47.678;9.158;2023-01-10T16:36:35;5.80;99.90
13433;DHT22;6789;47.678;9.158;2023-01-10T16:41:44;5.70;99.90
13433;DHT22;6789;47.678;9.158;2023-01-10T16:47:09;5.60;99.90
13433;DHT22;6789;47.678;9.158;2023-01-10T16:52:15;5.50;99.90
13433;DHT22;6789;47.678;9.158;2023-01-10T16:57:22;5.30;99.90
13433;DHT22;6789;47.678;9.158;2023-01-10T17:02:31;5.20;99.90
13433;DHT22;6789;47.678;9.158;2023-01-10T17:07:38;5.00;99.90
13433;DHT22;6789;47.678;9.158;2023-01-10T17:12:44;4.90;99.90
13433;DHT22;6789;47.678;9.158;2023-01-10T17:17:50;4.80;99.90
13433;DHT22;6789;47.678;9.158;2023-01-10T17:22:56;4.70;99.90
13433;DHT22;6789;47.678;9.158;2023-01-10T17:28:03;4.60;99.90
13433;DHT22;6789;47.678;9.158;2023-01-10T17:33:09;4.60;99.90
13433;DHT22;6789;47.678;9.158;2023-01-10T17:38:04;4.50;99.90
13433;DHT22;6789;47.678;9.158;2023-01-10T17:43:13;4.50;99.90
13433;DHT22;6789;47.678;9.158;2023-01-10T17:48:20;4.50;99.90
13433;DHT22;6789;47.678;9.158;2023-01-10T17:53:27;4.40;99.90
13433;DHT22;6789;47.678;9.158;2023-01-10T17:58:43;4.40;99.90
13433;DHT22;6789;47.678;9.158;2023-01-10T18:03:49;4.30;99.90
13433;DHT22;6789;47.678;9.158;2023-01-10T18:08:43;4.30;99.90
13433;DHT22;6789;47.678;9.158;2023-01-10T18:13:48;4.40;99.90
13433;DHT22;6789;47.678;9.158;2023-01-10T18:18:54;4.30;99.90
13433;DHT22;6789;47.678;9.158;2023-01-10T18:24:00;4.30;99.90
13433;DHT22;6789;47.678;9.158;2023-01-10T18:29:06;4.40;99.90
13433;DHT22;6789;47.678;9.158;2023-01-10T18:34:12;4.30;99.90
13433;DHT22;6789;47.678;9.158;2023-01-10T18:39:19;4.40;99.90
13433;DHT22;6789;47.678;9.158;2023-01-10T18:44:25;4.40;99.90
13433;DHT22;6789;47.678;9.158;2023-01-10T18:49:20;4.50;99.90
13433;DHT22;6789;47.678;9.158;2023-01-10T18:54:31;4.40;99.90
13433;DHT22;6789;47.678;9.158;2023-01-10T18:59:26;4.50;99.90
13433;DHT22;6789;47.678;9.158;2023-01-10T19:04:32;4.60;99.90
13433;DHT22;6789;47.678;9.158;2023-01-10T19:09:27;4.60;99.90
13433;DHT22;6789;47.678;9.158;2023-01-10T19:14:33;4.70;99.90
13433;DHT22;6789;47.678;9.158;2023-01-10T19:19:40;4.70;99.90
13433;DHT22;6789;47.678;9.158;2023-01-10T19:24:46;4.80;99.90
13433;DHT22;6789;47.678;9.158;2023-01-10T19:29:40;4.80;99.90
13433;DHT22;6789;47.678;9.158;2023-01-10T19:34:38;4.90;99.90
13433;DHT22;6789;47.678;9.158;2023-01-10T19:39:40;5.00;99.90
13433;DHT22;6789;47.678;9.158;2023-01-10T19:44:45;4.90;99.90
13433;DHT22;6789;47.678;9.158;2023-01-10T19:49:51;5.10;99.90
13433;DHT22;6789;47.678;9.158;2023-01-10T19:54:57;5.10;99.90
13433;DHT22;6789;47.678;9.158;2023-01-10T20:00:04;5.00;99.90
13433;DHT22;6789;47.678;9.158;2023-01-10T20:05:05;5.00;99.90
13433;DHT22;6789;47.678;9.158;2023-01-10T20:10:05;5.00;99.90
13433;DHT22;6789;47.678;9.158;2023-01-10T20:15:12;5.10;99.90
13433;DHT22;6789;47.678;9.158;2023-01-10T20:20:21;5.20;99.90
13433;DHT22;6789;47.678;9.158;2023-01-10T20:25:21;5.30;99.90
13433;DHT22;6789;47.678;9.158;2023-01-10T20:30:27;5.30;99.90
13433;DHT22;6789;47.678;9.158;2023-01-10T20:35:33;5.40;99.90
13433;DHT22;6789;47.678;9.158;2023-01-10T20:40:39;5.40;99.90
13433;DHT22;6789;47.678;9.158;2023-01-10T20:45:45;5.40;99.90
13433;DHT22;6789;47.678;9.158;2023-01-10T20:50:51;5.40;99.90
13433;DHT22;6789;47.678;9.158;2023-01-10T20:56:02;5.50;99.90
13433;DHT22;6789;47.678;9.158;2023-01-10T21:01:10;5.50;99.90
13433;DHT22;6789;47.678;9.158;2023-01-10T21:06:20;5.60;99.90
13433;DHT22;6789;47.678;9.158;2023-01-10T21:11:26;5.50;99.90
13433;DHT22;6789;47.678;9.158;2023-01-10T21:16:20;5.60;99.90
13433;DHT22;6789;47.678;9.158;2023-01-10T21:21:26;5.60;99.90
13433;DHT22;6789;47.678;9.158;2023-01-10T21:26:32;5.70;99.90
13433;DHT22;6789;47.678;9.158;2023-01-10T21:31:38;5.70;99.90
13433;DHT22;6789;47.678;9.158;2023-01-10T21:36:34;5.60;99.90
13433;DHT22;6789;47.678;9.158;2023-01-10T21:41:28;5.60;99.90
13433;DHT22;6789;47.678;9.158;2023-01-10T21:46:52;5.50;99.90
13433;DHT22;6789;47.678;9.158;2023-01-10T21:51:59;5.60;99.90
13433;DHT22;6789;47.678;9.158;2023-01-10T21:57:05;5.60;99.90
13433;DHT22;6789;47.678;9.158;2023-01-10T22:02:11;5.60;99.90
13433;DHT22;6789;47.678;9.158;2023-01-10T22:07:08;5.50;99.90
13433;DHT22;6789;47.678;9.158;2023-01-10T22:12:02;5.60;99.90
13433;DHT22;6789;47.678;9.158;2023-01-10T22:16:54;5.60;99.90
13433;DHT22;6789;47.678;9.158;2023-01-10T22:22:00;5.50;99.90
13433;DHT22;6789;47.678;9.158;2023-01-10T22:27:07;5.50;99.90
13433;DHT22;6789;47.678;9.158;2023-01-10T22:32:13;5.40;99.90
13433;DHT22;6789;47.678;9.158;2023-01-10T22:37:09;5.40;99.90
13433;DHT22;6789;47.678;9.158;2023-01-10T22:42:10;5.40;99.90
13433;DHT22;6789;47.678;9.158;2023-01-10T22:47:05;5.40;99.90
13433;DHT22;6789;47.678;9.158;2023-01-10T22:52:11;5.40;99.90
13433;DHT22;6789;47.678;9.158;2023-01-10T22:57:03;5.50;99.90
13433;DHT22;6789;47.678;9.158;2023-01-10T23:01:55;5.50;99.90
13433;DHT22;6789;47.678;9.158;2023-01-10T23:06:51;5.50;99.90
13433;DHT22;6789;47.678;9.158;2023-01-10T23:12:00;5.60;99.90
13433;DHT22;6789;47.678;9.158;2023-01-10T23:16:53;5.60;99.90
13433;DHT22;6789;47.678;9.158;2023-01-10T23:21:57;5.70;99.90
13433;DHT22;6789;47.678;9.158;2023-01-10T23:27:03;5.70;99.90
13433;DHT22;6789;47.678;9.158;2023-01-10T23:31:55;5.70;99.90
13433;DHT22;6789;47.678;9.158;2023-01-10T23:36:55;5.80;99.90
13433;DHT22;6789;47.678;9.158;2023-01-10T23:41:48;5.80;99.90
13433;DHT22;6789;47.678;9.158;2023-01-10T23:46:54;5.80;99.90
13433;DHT22;6789;47.678;9.158;2023-01-10T23:51:47;5.90;99.90
13433;DHT22;6789;47.678;9.158;2023-01-10T23:56:39;5.90;99.90
